createdAt,value
2023-04-27T00:00:31.087Z,88.55
2023-04-27T00:02:57.571Z,88.55
2023-04-27T00:05:24.115Z,88.79
2023-04-27T00:07:50.515Z,88.72
2023-04-27T00:10:16.839Z,89.29
2023-04-27T00:12:43.150Z,89.41
2023-04-27T00:15:10.200Z,90.01
2023-04-27T00:17:36.550Z,89.99
2023-04-27T00:20:02.936Z,89.54
2023-04-27T00:22:29.247Z,89.11
2023-04-27T00:24:55.552Z,89.56
2023-04-27T00:27:21.847Z,89.46
2023-04-27T00:29:48.147Z,88.77
2023-04-27T00:32:14.482Z,88.29
2023-04-27T00:34:40.781Z,87.85
2023-04-27T00:37:07.101Z,87.58
2023-04-27T00:39:34.465Z,87.53
2023-04-27T00:42:00.768Z,86.58
2023-04-27T00:44:27.808Z,83.70
2023-04-27T00:46:54.413Z,83.52
2023-04-27T00:49:21.376Z,82.53
2023-04-27T00:51:48.283Z,81.74
2023-04-27T00:54:20.571Z,82.02
2023-04-27T00:56:51.213Z,81.68
2023-04-27T00:59:18.672Z,82.82
2023-04-27T01:01:46.092Z,84.56
2023-04-27T01:04:12.651Z,85.13
2023-04-27T01:06:39.017Z,86.23
2023-04-27T01:09:06.297Z,86.59
2023-04-27T01:11:33.114Z,86.25
2023-04-27T01:14:04.041Z,86.35
2023-04-27T01:16:31.149Z,86.47
2023-04-27T01:18:57.510Z,86.76
2023-04-27T01:21:24.261Z,87.22
2023-04-27T01:23:50.571Z,87.44
2023-04-27T01:26:16.937Z,87.57
2023-04-27T01:28:43.366Z,87.70
2023-04-27T01:31:13.333Z,87.99
2023-04-27T01:33:40.291Z,88.15
2023-04-27T01:36:07.845Z,88.17
2023-04-27T01:38:34.829Z,89.14
2023-04-27T01:41:01.224Z,89.43
2023-04-27T01:43:28.240Z,89.74
2023-04-27T01:45:55.034Z,89.27
2023-04-27T01:48:21.382Z,89.83
2023-04-27T01:50:47.683Z,89.66
2023-04-27T01:53:13.996Z,89.69
2023-04-27T01:55:40.301Z,89.70
2023-04-27T01:58:06.599Z,89.97
2023-04-27T02:00:32.918Z,89.65
2023-04-27T02:02:59.318Z,89.67
2023-04-27T02:05:25.809Z,89.92
2023-04-27T02:07:52.146Z,89.88
2023-04-27T02:10:18.516Z,89.97
2023-04-27T02:12:44.820Z,89.84
2023-04-27T02:15:11.192Z,89.81
2023-04-27T02:17:37.557Z,89.87
2023-04-27T02:20:04.561Z,89.96
2023-04-27T02:22:30.865Z,90.21
2023-04-27T02:24:57.175Z,89.94
2023-04-27T02:27:23.524Z,89.99
2023-04-27T02:29:50.392Z,90.52
2023-04-27T02:32:17.293Z,90.89
2023-04-27T02:34:43.916Z,91.07
2023-04-27T02:37:10.372Z,91.05
2023-04-27T02:39:37.122Z,90.96
2023-04-27T02:42:03.534Z,91.08
2023-04-27T02:44:29.832Z,91.19
2023-04-27T02:46:56.164Z,91.29
2023-04-27T02:49:22.542Z,91.13
2023-04-27T02:51:48.849Z,91.23
2023-04-27T02:54:15.172Z,91.52
2023-04-27T02:56:41.460Z,92.08
2023-04-27T02:59:07.786Z,92.08
2023-04-27T03:01:34.176Z,91.73
2023-04-27T03:04:00.816Z,91.31
2023-04-27T03:06:27.236Z,91.08
2023-04-27T03:08:53.525Z,90.75
2023-04-27T03:11:19.849Z,91.21
2023-04-27T03:13:46.141Z,91.85
2023-04-27T03:16:12.555Z,92.45
2023-04-27T03:18:39.135Z,92.95
2023-04-27T03:21:09.529Z,92.80
2023-04-27T03:23:36.328Z,92.69
2023-04-27T03:26:10.543Z,92.74
2023-04-27T03:28:37.309Z,92.94
2023-04-27T03:31:07.615Z,93.32
2023-04-27T03:33:34.796Z,93.61
2023-04-27T03:36:01.115Z,94.02
2023-04-27T03:38:27.967Z,94.12
2023-04-27T03:40:54.667Z,94.36
2023-04-27T03:43:21.488Z,94.80
2023-04-27T03:45:47.838Z,94.87
2023-04-27T03:48:14.880Z,95.29
2023-04-27T03:50:41.309Z,95.25
2023-04-27T03:53:08.015Z,95.26
2023-04-27T03:55:34.423Z,95.36
2023-04-27T03:58:00.738Z,95.25
2023-04-27T04:00:27.170Z,95.26
2023-04-27T04:02:53.646Z,95.44
2023-04-27T04:05:20.181Z,95.65
2023-04-27T04:07:46.621Z,95.13
2023-04-27T04:10:12.938Z,94.74
2023-04-27T04:12:39.258Z,94.91
2023-04-27T04:15:06.213Z,95.38
2023-04-27T04:17:32.624Z,95.55
2023-04-27T04:19:59.022Z,95.84
2023-04-27T04:22:25.375Z,96.24
2023-04-27T04:24:51.690Z,96.34
2023-04-27T04:27:18.074Z,96.18
2023-04-27T04:29:44.389Z,96.46
2023-04-27T04:32:10.877Z,96.52
2023-04-27T04:34:37.195Z,96.79
2023-04-27T04:37:04.608Z,96.91
2023-04-27T04:39:31.695Z,97.60
2023-04-27T04:41:58.008Z,97.66
2023-04-27T04:44:24.497Z,96.21
2023-04-27T04:46:51.036Z,93.40
2023-04-27T04:49:17.726Z,90.01
2023-04-27T04:51:44.741Z,85.61
2023-04-27T04:54:11.486Z,83.78
2023-04-27T04:56:37.867Z,82.91
2023-04-27T04:59:04.164Z,83.92
2023-04-27T05:01:30.512Z,85.07
2023-04-27T05:03:57.004Z,85.70
2023-04-27T05:06:23.464Z,85.97
2023-04-27T05:08:49.778Z,86.17
2023-04-27T05:11:16.093Z,86.56
2023-04-27T05:13:43.508Z,87.22
2023-04-27T05:16:09.859Z,87.82
2023-04-27T05:18:36.335Z,88.15
2023-04-27T05:21:02.673Z,88.17
2023-04-27T05:23:28.980Z,88.43
2023-04-27T05:25:55.296Z,88.33
2023-04-27T05:28:21.594Z,88.49
2023-04-27T05:30:47.963Z,88.44
2023-04-27T05:33:14.268Z,87.95
2023-04-27T05:35:40.597Z,87.32
2023-04-27T05:38:06.897Z,87.16
2023-04-27T05:40:33.210Z,87.07
2023-04-27T05:42:59.521Z,86.44
2023-04-27T05:45:25.840Z,83.53
2023-04-27T05:47:52.233Z,79.08
2023-04-27T05:50:18.571Z,70.86
2023-04-27T05:52:44.888Z,64.75
2023-04-27T05:55:11.180Z,62.82
2023-04-27T05:57:39.166Z,60.80
2023-04-27T06:00:06.227Z,56.66
2023-04-27T06:02:32.860Z,55.80
2023-04-27T06:04:59.267Z,53.52
2023-04-27T06:07:25.617Z,53.24
2023-04-27T06:09:51.914Z,51.29
2023-04-27T06:12:18.208Z,49.22
2023-04-27T06:14:44.524Z,48.53
2023-04-27T06:17:10.837Z,47.28
2023-04-27T06:19:37.212Z,44.57
2023-04-27T06:22:03.585Z,44.84
2023-04-27T06:24:29.886Z,44.53
2023-04-27T06:26:56.237Z,46.08
2023-04-27T06:29:22.563Z,46.51
2023-04-27T06:31:48.878Z,47.33
2023-04-27T06:34:15.255Z,47.36
2023-04-27T06:36:41.740Z,47.90
2023-04-27T06:39:08.042Z,50.39
2023-04-27T06:41:34.414Z,52.25
2023-04-27T06:44:00.730Z,55.15
2023-04-27T06:46:27.120Z,57.82
2023-04-27T06:48:53.468Z,57.69
2023-04-27T06:51:19.760Z,58.21
2023-04-27T06:53:46.087Z,58.01
2023-04-27T06:56:12.403Z,58.22
2023-04-27T06:58:38.785Z,59.65
2023-04-27T07:01:05.169Z,60.21
2023-04-27T07:03:35.315Z,59.57
2023-04-27T07:06:01.782Z,58.90
2023-04-27T07:08:28.081Z,58.49
2023-04-27T07:10:54.484Z,58.21
2023-04-27T07:13:20.832Z,58.77
2023-04-27T07:15:47.173Z,57.27
2023-04-27T07:18:13.477Z,59.35
2023-04-27T07:20:41.113Z,59.83
2023-04-27T07:23:07.436Z,60.63
2023-04-27T07:25:34.017Z,60.17
2023-04-27T07:28:00.387Z,60.39
2023-04-27T07:30:26.715Z,59.00
2023-04-27T07:32:53.088Z,59.18
2023-04-27T07:35:19.592Z,57.90
2023-04-27T07:37:45.910Z,57.82
2023-04-27T07:40:12.701Z,57.52
2023-04-27T07:42:38.996Z,56.28
2023-04-27T07:45:05.832Z,55.00
2023-04-27T07:47:32.161Z,54.36
2023-04-27T07:49:58.494Z,55.51
2023-04-27T07:52:24.832Z,55.55
2023-04-27T07:54:51.168Z,53.43
2023-04-27T07:57:17.535Z,52.67
2023-04-27T07:59:43.912Z,55.65
2023-04-27T08:02:18.573Z,57.94
2023-04-27T08:04:46.995Z,57.92
2023-04-27T08:07:14.962Z,55.05
2023-04-27T08:09:41.429Z,54.55
2023-04-27T08:12:07.754Z,58.11
2023-04-27T08:14:34.924Z,55.20
2023-04-27T08:17:01.358Z,55.13
2023-04-27T08:19:27.886Z,54.27
2023-04-27T08:21:54.189Z,53.27
2023-04-27T08:24:20.520Z,52.52
2023-04-27T08:26:46.829Z,47.30
2023-04-27T08:29:26.288Z,49.22
2023-04-27T08:31:55.746Z,49.10
2023-04-27T08:34:22.882Z,50.51
2023-04-27T08:36:49.204Z,49.35
2023-04-27T08:39:15.706Z,48.72
2023-04-27T08:41:42.789Z,47.73
2023-04-27T08:44:09.312Z,49.01
2023-04-27T08:46:37.365Z,48.22
2023-04-27T08:49:03.767Z,48.15
2023-04-27T08:51:32.309Z,47.38
2023-04-27T08:53:59.108Z,47.30
2023-04-27T08:56:27.982Z,48.08
2023-04-27T08:58:55.890Z,49.15
2023-04-27T09:01:23.447Z,51.12
2023-04-27T09:03:55.689Z,50.45
2023-04-27T09:06:35.567Z,50.48
2023-04-27T09:09:03.075Z,50.02
2023-04-27T09:11:31.520Z,45.84
2023-04-27T09:13:59.960Z,46.68
2023-04-27T09:16:28.550Z,49.65
2023-04-27T09:18:56.373Z,49.77
2023-04-27T09:21:30.276Z,49.87
2023-04-27T09:23:57.077Z,50.47
2023-04-27T09:26:25.483Z,50.86
2023-04-27T09:28:53.353Z,50.89
2023-04-27T09:31:20.304Z,51.95
2023-04-27T09:33:55.078Z,51.76
2023-04-27T09:36:22.512Z,52.28
2023-04-27T09:38:49.556Z,52.55
2023-04-27T09:41:16.950Z,51.96
2023-04-27T09:43:44.237Z,51.22
2023-04-27T09:46:12.316Z,48.83
2023-04-27T09:48:39.458Z,48.15
2023-04-27T09:51:06.036Z,47.84
2023-04-27T09:53:54.097Z,49.24
2023-04-27T09:56:46.314Z,45.97
2023-04-27T09:59:50.106Z,45.13
2023-04-27T10:02:25.147Z,43.61
2023-04-27T10:05:19.925Z,44.20
2023-04-27T10:07:46.499Z,43.69
2023-04-27T10:10:17.227Z,41.96
2023-04-27T10:12:43.583Z,40.07
2023-04-27T10:15:17.134Z,40.03
2023-04-27T10:17:51.117Z,40.90
2023-04-27T10:20:17.476Z,41.47
2023-04-27T10:22:49.241Z,40.76
2023-04-27T10:25:15.576Z,42.51
2023-04-27T10:27:41.928Z,40.81
2023-04-27T10:30:12.503Z,40.12
2023-04-27T10:32:52.350Z,39.73
2023-04-27T10:35:19.659Z,41.44
2023-04-27T10:37:46.041Z,40.59
2023-04-27T10:40:13.731Z,41.38
2023-04-27T10:42:40.981Z,40.15
2023-04-27T10:45:08.072Z,40.69
2023-04-27T10:47:39.420Z,40.54
2023-04-27T10:50:07.687Z,41.06
2023-04-27T10:52:34.010Z,40.49
2023-04-27T10:55:20.581Z,39.16
2023-04-27T10:57:52.091Z,37.66
2023-04-27T11:00:27.174Z,38.17
2023-04-27T11:02:55.288Z,38.64
2023-04-27T11:05:24.620Z,36.33
2023-04-27T11:07:52.099Z,42.93
2023-04-27T11:10:18.952Z,40.21
2023-04-27T11:12:46.034Z,39.96
2023-04-27T11:15:13.271Z,40.20
2023-04-27T11:17:40.368Z,39.25
2023-04-27T11:20:07.417Z,40.03
2023-04-27T11:22:34.577Z,40.49
2023-04-27T11:25:01.120Z,42.14
2023-04-27T11:27:39.822Z,42.76
2023-04-27T11:30:06.803Z,42.89
2023-04-27T11:32:33.364Z,41.54
2023-04-27T11:34:59.840Z,42.55
2023-04-27T11:37:27.286Z,41.11
2023-04-27T11:39:54.825Z,43.40
2023-04-27T11:42:26.199Z,43.61
2023-04-27T11:44:53.337Z,42.06
2023-04-27T11:47:20.180Z,42.48
2023-04-27T11:49:50.501Z,41.83
2023-04-27T11:52:16.962Z,39.93
2023-04-27T11:55:03.618Z,39.48
2023-04-27T11:57:32.167Z,39.75
2023-04-27T12:00:01.684Z,39.26
2023-04-27T12:02:29.759Z,39.22
2023-04-27T12:04:56.481Z,40.90
2023-04-27T12:07:23.108Z,39.91
2023-04-27T12:09:49.426Z,39.30
2023-04-27T12:12:15.823Z,41.31
2023-04-27T12:14:42.128Z,42.29
2023-04-27T12:17:08.553Z,39.50
2023-04-27T12:19:34.906Z,41.51
2023-04-27T12:22:01.316Z,38.96
2023-04-27T12:24:27.624Z,40.59
2023-04-27T12:26:53.942Z,40.19
2023-04-27T12:29:20.266Z,42.09
2023-04-27T12:31:46.596Z,42.40
2023-04-27T12:34:13.177Z,38.43
2023-04-27T12:36:39.805Z,40.79
2023-04-27T12:39:17.518Z,40.01
2023-04-27T12:41:44.423Z,40.34
2023-04-27T12:44:12.071Z,39.67
2023-04-27T12:46:39.832Z,38.38
2023-04-27T12:49:07.486Z,40.39
2023-04-27T12:51:34.483Z,40.37
2023-04-27T12:54:01.459Z,39.00
2023-04-27T12:56:28.155Z,40.74
2023-04-27T12:58:54.786Z,39.78
2023-04-27T13:01:21.780Z,40.05
2023-04-27T13:03:48.220Z,39.50
2023-04-27T13:06:14.631Z,40.05
2023-04-27T13:08:41.204Z,38.32
2023-04-27T13:11:07.604Z,37.33
2023-04-27T13:13:33.926Z,37.07
2023-04-27T13:16:01.442Z,35.96
2023-04-27T13:18:27.800Z,38.74
2023-04-27T13:20:54.592Z,39.35
2023-04-27T13:23:20.889Z,35.29
2023-04-27T13:25:47.225Z,34.19
2023-04-27T13:28:13.554Z,35.90
2023-04-27T13:30:39.919Z,35.29
2023-04-27T13:33:21.183Z,36.96
2023-04-27T13:35:48.613Z,34.73
2023-04-27T13:38:14.913Z,36.38
2023-04-27T13:40:41.221Z,37.05
2023-04-27T13:43:07.549Z,36.20
2023-04-27T13:45:33.884Z,37.62
2023-04-27T13:48:00.252Z,38.12
2023-04-27T13:50:26.609Z,37.80
2023-04-27T13:52:52.970Z,40.96
2023-04-27T13:55:19.312Z,39.08
2023-04-27T13:57:45.765Z,39.94
2023-04-27T14:00:12.715Z,38.14
2023-04-27T14:02:39.360Z,39.65
2023-04-27T14:05:06.953Z,38.02
2023-04-27T14:07:33.295Z,38.21
2023-04-27T14:09:59.598Z,37.23
2023-04-27T14:12:25.944Z,38.29
2023-04-27T14:14:52.312Z,36.92
2023-04-27T14:17:18.633Z,36.69
2023-04-27T14:19:44.933Z,39.67
2023-04-27T14:22:11.248Z,38.07
2023-04-27T14:24:37.560Z,37.60
2023-04-27T14:27:03.874Z,37.38
2023-04-27T14:29:30.162Z,37.28
2023-04-27T14:31:56.530Z,37.58
2023-04-27T14:34:23.086Z,37.89
2023-04-27T14:36:49.428Z,37.79
2023-04-27T14:39:16.028Z,37.80
2023-04-27T14:41:42.534Z,37.95
2023-04-27T14:44:08.846Z,36.57
2023-04-27T14:46:35.317Z,39.04
2023-04-27T14:49:01.645Z,38.28
2023-04-27T14:51:28.045Z,36.73
2023-04-27T14:53:54.850Z,38.82
2023-04-27T14:56:21.328Z,36.87
2023-04-27T14:58:47.640Z,35.20
2023-04-27T15:01:14.027Z,35.74
2023-04-27T15:03:40.459Z,37.55
2023-04-27T15:06:07.094Z,37.92
2023-04-27T15:08:34.557Z,38.53
2023-04-27T15:11:00.968Z,39.92
2023-04-27T15:13:27.567Z,38.97
2023-04-27T15:15:58.302Z,37.39
2023-04-27T15:18:25.178Z,38.02
2023-04-27T15:20:55.685Z,37.44
2023-04-27T15:23:22.935Z,37.74
2023-04-27T15:25:50.341Z,38.36
2023-04-27T15:28:16.843Z,38.25
2023-04-27T15:30:44.391Z,36.67
2023-04-27T15:33:11.921Z,37.87
2023-04-27T15:35:38.293Z,36.98
2023-04-27T15:38:05.127Z,37.47
2023-04-27T15:40:33.348Z,36.57
2023-04-27T15:42:59.914Z,36.36
2023-04-27T15:45:28.145Z,36.95
2023-04-27T15:47:54.955Z,36.01
2023-04-27T15:50:21.393Z,36.50
2023-04-27T15:52:47.704Z,35.23
2023-04-27T15:55:14.014Z,35.83
2023-04-27T15:57:40.379Z,37.38
2023-04-27T16:00:07.368Z,38.69
2023-04-27T16:02:33.776Z,37.53
2023-04-27T16:05:00.129Z,36.83
2023-04-27T16:07:26.496Z,37.90
2023-04-27T16:09:52.896Z,38.13
2023-04-27T16:12:19.242Z,39.03
2023-04-27T16:14:45.539Z,38.85
2023-04-27T16:17:11.936Z,38.05
2023-04-27T16:19:38.260Z,37.58
2023-04-27T16:22:04.608Z,39.44
2023-04-27T16:24:30.901Z,38.16
2023-04-27T16:26:57.883Z,39.14
2023-04-27T16:29:24.187Z,38.13
2023-04-27T16:31:50.830Z,39.59
2023-04-27T16:34:17.285Z,38.19
2023-04-27T16:36:43.642Z,38.92
2023-04-27T16:39:09.967Z,38.92
2023-04-27T16:41:36.289Z,38.22
2023-04-27T16:44:02.619Z,38.79
2023-04-27T16:46:29.113Z,38.91
2023-04-27T16:48:55.481Z,39.02
2023-04-27T16:51:21.822Z,39.77
2023-04-27T16:53:48.116Z,39.72
2023-04-27T16:56:14.505Z,40.89
2023-04-27T16:58:41.043Z,38.92
2023-04-27T17:01:07.571Z,39.03
2023-04-27T17:03:34.040Z,40.19
2023-04-27T17:06:00.393Z,40.83
2023-04-27T17:08:26.686Z,40.12
2023-04-27T17:10:53.044Z,39.37
2023-04-27T17:13:19.361Z,40.91
2023-04-27T17:15:45.705Z,39.98
2023-04-27T17:18:12.014Z,39.89
2023-04-27T17:20:39.791Z,39.92
2023-04-27T17:23:07.982Z,40.27
2023-04-27T17:25:34.374Z,39.64
2023-04-27T17:28:01.658Z,40.25
2023-04-27T17:30:28.293Z,39.37
2023-04-27T17:32:54.639Z,39.92
2023-04-27T17:35:20.968Z,40.86
2023-04-27T17:37:47.595Z,39.99
2023-04-27T17:40:13.909Z,40.53
2023-04-27T17:42:40.208Z,41.58
2023-04-27T17:45:07.368Z,40.45
2023-04-27T17:47:33.668Z,41.57
2023-04-27T17:49:59.964Z,41.24
2023-04-27T17:52:26.251Z,41.83
2023-04-27T17:54:52.552Z,42.26
2023-04-27T17:57:18.936Z,43.65
2023-04-27T17:59:45.235Z,42.52
2023-04-27T18:02:11.579Z,43.07
2023-04-27T18:04:38.635Z,43.55
2023-04-27T18:07:04.959Z,44.51
2023-04-27T18:09:32.746Z,43.27
2023-04-27T18:11:59.549Z,42.27
2023-04-27T18:14:26.278Z,43.02
2023-04-27T18:16:52.608Z,43.88
2023-04-27T18:19:19.027Z,43.51
2023-04-27T18:21:45.340Z,42.46
2023-04-27T18:24:11.642Z,42.89
2023-04-27T18:26:37.940Z,43.68
2023-04-27T18:29:04.246Z,42.36
2023-04-27T18:34:02.377Z,43.03
2023-04-27T18:36:28.714Z,43.25
2023-04-27T18:38:55.387Z,43.37
2023-04-27T18:41:21.691Z,43.88
2023-04-27T18:43:48.020Z,44.41
2023-04-27T18:46:14.379Z,44.28
2023-04-27T18:48:40.703Z,45.18
2023-04-27T18:51:07.031Z,44.93
2023-04-27T18:53:33.363Z,45.34
2023-04-27T18:56:00.461Z,45.95
2023-04-27T18:58:26.794Z,46.30
2023-04-27T19:00:53.146Z,45.86
2023-04-27T19:03:19.921Z,46.71
2023-04-27T19:05:46.379Z,46.59
2023-04-27T19:08:12.704Z,46.76
2023-04-27T19:10:39.005Z,46.98
2023-04-27T19:13:05.324Z,46.60
2023-04-27T19:15:31.618Z,46.77
2023-04-27T19:18:07.114Z,47.21
2023-04-27T19:20:36.841Z,47.05
2023-04-27T19:23:03.309Z,47.21
2023-04-27T19:25:29.671Z,47.54
2023-04-27T19:27:55.995Z,47.99
2023-04-27T19:30:22.688Z,47.90
2023-04-27T19:32:49.114Z,48.09
2023-04-27T19:35:15.496Z,47.80
2023-04-27T19:37:41.804Z,48.22
2023-04-27T19:40:08.779Z,47.94
2023-04-27T19:42:35.135Z,48.39
2023-04-27T19:45:01.464Z,48.35
2023-04-27T19:47:27.778Z,48.32
2023-04-27T19:49:54.121Z,49.02
2023-04-27T19:52:20.506Z,48.89
2023-04-27T19:54:51.197Z,49.09
2023-04-27T19:57:17.514Z,49.66
2023-04-27T19:59:43.817Z,50.51
2023-04-27T20:02:10.206Z,50.46
2023-04-27T20:04:36.769Z,50.55
2023-04-27T20:07:05.099Z,50.50
2023-04-27T20:09:32.087Z,50.65
2023-04-27T20:11:58.468Z,51.10
2023-04-27T20:14:24.833Z,51.24
2023-04-27T20:16:51.207Z,51.79
2023-04-27T20:19:17.914Z,51.83
2023-04-27T20:21:44.456Z,52.00
2023-04-27T20:24:10.793Z,53.02
2023-04-27T20:26:37.153Z,52.60
2023-04-27T20:29:03.464Z,52.73
2023-04-27T20:31:29.792Z,52.04
2023-04-27T20:33:56.124Z,52.47
2023-04-27T20:36:22.483Z,52.69
2023-04-27T20:38:48.895Z,52.68
2023-04-27T20:41:15.215Z,52.37
2023-04-27T20:43:41.523Z,52.30
2023-04-27T20:46:08.038Z,52.78
2023-04-27T20:48:34.423Z,53.14
2023-04-27T20:51:00.838Z,53.41
2023-04-27T20:53:27.291Z,53.22
2023-04-27T20:55:53.670Z,53.45
2023-04-27T20:58:20.033Z,53.17
2023-04-27T21:00:46.453Z,52.55
2023-04-27T21:03:12.979Z,52.95
2023-04-27T21:05:39.515Z,52.91
2023-04-27T21:08:05.822Z,53.14
2023-04-27T21:10:32.208Z,52.68
2023-04-27T21:12:58.503Z,52.66
2023-04-27T21:15:24.822Z,53.42
2023-04-27T21:17:51.258Z,52.90
2023-04-27T21:20:17.634Z,53.01
2023-04-27T21:22:43.929Z,52.88
2023-04-27T21:25:10.231Z,52.34
2023-04-27T21:27:36.635Z,52.02
2023-04-27T21:30:03.069Z,52.36
2023-04-27T21:32:29.376Z,52.20
2023-04-27T21:34:55.680Z,52.69
2023-04-27T21:37:21.970Z,52.45
2023-04-27T21:39:48.289Z,52.10
2023-04-27T21:42:14.593Z,51.91
2023-04-27T21:44:40.889Z,51.95
2023-04-27T21:47:07.233Z,51.63
2023-04-27T21:49:33.537Z,52.00
2023-04-27T21:51:59.868Z,51.55
2023-04-27T21:54:26.159Z,51.95
2023-04-27T21:56:52.470Z,51.72
2023-04-27T21:59:18.798Z,51.64
2023-04-27T22:01:45.173Z,51.42
2023-04-27T22:04:11.743Z,51.42
2023-04-27T22:06:38.297Z,51.67
2023-04-27T22:09:06.530Z,51.40
2023-04-27T22:11:34.251Z,51.51
2023-04-27T22:14:00.640Z,51.55
2023-04-27T22:16:27.019Z,51.42
2023-04-27T22:18:53.361Z,51.54
2023-04-27T22:21:19.713Z,51.93
2023-04-27T22:23:47.557Z,51.66
2023-04-27T22:26:14.013Z,50.93
2023-04-27T22:28:40.341Z,51.08
2023-04-27T22:31:06.720Z,51.18
2023-04-27T22:33:33.221Z,51.01
2023-04-27T22:35:59.746Z,51.02
2023-04-27T22:38:26.097Z,53.27
2023-04-27T22:40:52.416Z,51.44
2023-04-27T22:43:18.720Z,51.67
2023-04-27T22:45:45.057Z,51.09
2023-04-27T22:48:11.533Z,51.84
2023-04-27T22:50:37.868Z,51.66
2023-04-27T22:53:04.224Z,51.70
2023-04-27T22:55:30.525Z,51.82
2023-04-27T22:57:56.856Z,52.34
2023-04-27T23:00:23.286Z,51.44
2023-04-27T23:02:49.751Z,51.78
2023-04-27T23:05:16.174Z,52.09
2023-04-27T23:07:42.485Z,51.99
2023-04-27T23:10:09.660Z,52.42
2023-04-27T23:12:36.049Z,51.64
2023-04-27T23:15:02.367Z,51.78
2023-04-27T23:17:28.682Z,51.84
2023-04-27T23:19:55.015Z,51.71
2023-04-27T23:22:21.330Z,51.63
2023-04-27T23:24:47.629Z,52.11
2023-04-27T23:27:13.965Z,52.56
2023-04-27T23:29:40.306Z,52.59
2023-04-27T23:32:06.629Z,52.74
2023-04-27T23:34:32.967Z,52.56
2023-04-27T23:36:59.434Z,53.27
2023-04-27T23:39:25.740Z,52.63
2023-04-27T23:41:52.067Z,52.86
2023-04-27T23:44:18.425Z,52.89
2023-04-27T23:46:44.748Z,53.49
2023-04-27T23:49:11.059Z,53.25
2023-04-27T23:51:37.422Z,54.12
2023-04-27T23:54:03.887Z,54.43
2023-04-27T23:56:30.270Z,55.06
2023-04-27T23:58:56.574Z,55.41
